Alafaya, Florida
Current Conditions -  °F | °C
As of 8:50 PM on Saturday 25 Oct 2014 (Local Time) from KTIX Reporting Station
Clear Clear  
Wind Chill: 66°   Ceiling: Unl
Heat Index: 66°   Visibility: 7mi
Dew Point: 61°   Wind: 9mph
Humidity: 83%   Direction: 10°N
Pressure: 29.98"   Gusts: NA
Location:  28.4078°N, 81.0314°W
Report Text: KTIX 260050Z 01008KT 7SM SKC 19/16 A2998 RMK LAST
Loading
Personal Weather Stations






























Interactive Weather Map
Tropical Storm Tracking
New forecast layout! Learn more

10-Day Weather Forecast

Advertisements
Track Severe Weather on mobile